Time;durP1;ratioP1;P1;durP2;ratioP2;P2;SDS_P1;SDS_P2;PMS_P1;PMS_P2;Temp;Humidity;BMP_temperature;BMP_pressure;BME280_temperature;BME280_humidity;BME280_pressure;Samples;Min_cycle;Max_cycle;Signal;HPM_P1;HPM_P2
2021/03/18 00:00:14;;;;;;;9.05;4.55;;;4.40;99.90;;;;;;4979029;28;20216;-86
2021/03/18 00:02:40;;;;;;;7.20;4.47;;;4.40;99.90;;;;;;4979063;28;20229;-86
2021/03/18 00:05:08;;;;;;;8.30;4.30;;;4.70;99.90;;;;;;4978199;28;20762;-86
2021/03/18 00:07:35;;;;;;;9.35;4.22;;;4.20;99.90;;;;;;4989072;28;20205;-86
2021/03/18 00:10:04;;;;;;;7.32;4.10;;;4.20;99.90;;;;;;4996282;28;20267;-86
2021/03/18 00:12:30;;;;;;;7.97;4.28;;;4.60;99.90;;;;;;4976158;28;20229;-86
2021/03/18 00:14:58;;;;;;;9.90;4.07;;;4.50;99.90;;;;;;4962335;28;20253;-86
2021/03/18 00:17:24;;;;;;;6.00;4.18;;;4.60;99.90;;;;;;4980017;28;20296;-86
2021/03/18 00:19:50;;;;;;;13.18;4.60;;;4.50;99.90;;;;;;4977963;28;20259;-85
2021/03/18 00:22:17;;;;;;;9.10;4.93;;;4.70;99.90;;;;;;4977466;28;20287;-85
2021/03/18 00:24:43;;;;;;;9.00;4.10;;;4.60;99.90;;;;;;4976928;28;20198;-84
2021/03/18 00:27:12;;;;;;;8.07;4.28;;;4.80;99.90;;;;;;4977277;28;20263;-85
2021/03/18 00:29:38;;;;;;;6.75;4.28;;;4.80;99.90;;;;;;4956647;28;20554;-85
2021/03/18 00:32:07;;;;;;;9.38;4.85;;;4.70;99.90;;;;;;4958176;28;20371;-85
2021/03/18 00:34:33;;;;;;;11.82;4.30;;;4.60;99.90;;;;;;4971582;28;20312;-85
2021/03/18 00:37:00;;;;;;;7.30;4.30;;;4.50;99.90;;;;;;4983687;28;20687;-84
2021/03/18 00:39:26;;;;;;;6.35;3.90;;;4.30;99.90;;;;;;4983797;28;20205;-85
2021/03/18 00:41:52;;;;;;;7.68;5.40;;;4.20;99.90;;;;;;4978412;28;20638;-85
2021/03/18 00:44:19;;;;;;;7.88;4.28;;;4.50;99.90;;;;;;4962369;28;20206;-86
2021/03/18 00:46:45;;;;;;;6.50;4.20;;;4.50;99.90;;;;;;4976375;28;20235;-85
2021/03/18 00:49:13;;;;;;;8.85;4.20;;;4.40;99.90;;;;;;4978962;28;20221;-87
2021/03/18 00:51:39;;;;;;;8.40;4.50;;;4.30;99.90;;;;;;4979424;28;20288;-86
2021/03/18 00:54:06;;;;;;;7.85;4.57;;;4.20;99.90;;;;;;4976148;28;20297;-87
2021/03/18 00:56:33;;;;;;;7.85;4.45;;;4.20;99.90;;;;;;4979254;28;20229;-84
2021/03/18 00:58:59;;;;;;;6.80;4.00;;;4.60;99.90;;;;;;4980870;28;20208;-86
2021/03/18 01:01:26;;;;;;;5.57;3.40;;;4.60;99.90;;;;;;4980362;28;20320;-84
2021/03/18 01:03:53;;;;;;;6.90;4.13;;;4.40;99.90;;;;;;4988115;28;20219;-85
2021/03/18 01:06:22;;;;;;;15.18;3.65;;;4.50;99.90;;;;;;4989848;28;20205;-85
2021/03/18 01:08:49;;;;;;;5.10;3.47;;;4.60;99.90;;;;;;4989730;28;20229;-85
2021/03/18 01:11:17;;;;;;;5.93;3.60;;;4.50;99.90;;;;;;4991648;28;20206;-85
2021/03/18 01:13:46;;;;;;;7.65;4.00;;;4.40;99.90;;;;;;4996462;28;20319;-85
2021/03/18 01:16:15;;;;;;;8.20;4.22;;;4.40;99.90;;;;;;4992737;28;20220;-85
2021/03/18 01:18:44;;;;;;;8.73;4.20;;;4.30;99.90;;;;;;4996468;28;20208;-86
2021/03/18 01:21:11;;;;;;;8.07;3.70;;;4.20;99.90;;;;;;4994744;28;20201;-85
2021/03/18 01:23:40;;;;;;;6.18;4.00;;;4.20;99.90;;;;;;5005319;28;20264;-83
2021/03/18 01:26:08;;;;;;;7.85;3.85;;;4.30;99.90;;;;;;4997699;28;20189;-84
2021/03/18 01:28:35;;;;;;;7.95;3.85;;;4.50;99.90;;;;;;4994512;28;20245;-84
2021/03/18 01:31:03;;;;;;;7.45;3.92;;;4.50;99.90;;;;;;4990586;28;20271;-86
2021/03/18 01:33:30;;;;;;;10.50;4.00;;;4.50;99.90;;;;;;4995586;28;20437;-84
2021/03/18 01:36:00;;;;;;;8.85;3.65;;;4.80;99.90;;;;;;4995378;28;20630;-85
2021/03/18 01:38:27;;;;;;;5.82;3.53;;;4.60;99.90;;;;;;4992591;28;20256;-84
2021/03/18 01:40:54;;;;;;;5.82;3.60;;;4.60;99.90;;;;;;4996947;28;20194;-83
2021/03/18 01:43:21;;;;;;;7.80;3.83;;;4.50;99.90;;;;;;4994723;28;20240;-85
2021/03/18 01:45:48;;;;;;;6.43;3.65;;;4.40;99.90;;;;;;4986701;28;20300;-85
2021/03/18 01:48:14;;;;;;;6.88;4.38;;;4.40;99.90;;;;;;4985308;28;20228;-86
2021/03/18 01:50:41;;;;;;;7.00;3.45;;;4.50;99.90;;;;;;4985465;28;20300;-83
2021/03/18 01:53:08;;;;;;;5.10;3.00;;;4.50;99.90;;;;;;4967659;28;20293;-84
2021/03/18 01:55:37;;;;;;;7.45;3.58;;;4.40;99.90;;;;;;4966555;28;20288;-84
2021/03/18 01:58:05;;;;;;;6.95;3.67;;;4.60;99.90;;;;;;4972507;28;20201;-85
2021/03/18 02:00:33;;;;;;;6.45;4.05;;;4.40;99.90;;;;;;4989956;28;20213;-84
2021/03/18 02:03:00;;;;;;;8.65;3.75;;;4.50;99.90;;;;;;4987520;28;20253;-86
2021/03/18 02:05:27;;;;;;;8.25;4.10;;;4.50;99.90;;;;;;4988965;28;20268;-85
2021/03/18 02:07:54;;;;;;;6.78;3.75;;;4.40;99.90;;;;;;4988725;28;20703;-86
2021/03/18 02:10:22;;;;;;;7.63;4.30;;;4.40;99.90;;;;;;4988934;28;20197;-85
2021/03/18 02:12:49;;;;;;;6.30;3.15;;;4.60;99.90;;;;;;4988386;28;20260;-85
2021/03/18 02:15:18;;;;;;;7.38;4.28;;;4.70;99.90;;;;;;4987379;28;20205;-85
2021/03/18 02:17:54;;;;;;;5.32;3.75;;;4.70;99.90;;;;;;4978990;28;20238;-85
2021/03/18 02:21:12;;;;;;;8.80;4.32;;;4.60;99.90;;;;;;4960315;28;20229;-86
2021/03/18 02:24:04;;;;;;;7.28;4.40;;;4.30;99.90;;;;;;4969394;28;20225;-85
2021/03/18 02:27:14;;;;;;;6.50;3.80;;;4.30;99.90;;;;;;4981816;28;20209;-85
2021/03/18 02:30:33;;;;;;;6.00;4.32;;;4.40;99.90;;;;;;4982985;28;20208;-85
2021/03/18 02:33:26;;;;;;;6.78;3.50;;;4.20;99.90;;;;;;4966511;28;20233;-86
2021/03/18 02:35:58;;;;;;;7.90;3.72;;;4.10;99.90;;;;;;4981266;28;20217;-85
2021/03/18 02:38:29;;;;;;;10.88;4.22;;;4.10;99.90;;;;;;4981685;28;20332;-86
2021/03/18 02:41:02;;;;;;;7.07;3.90;;;4.30;99.90;;;;;;4981226;28;20280;-85
2021/03/18 02:43:33;;;;;;;8.27;3.95;;;4.10;99.90;;;;;;4981133;28;20591;-85
2021/03/18 02:46:02;;;;;;;6.78;3.40;;;4.10;99.90;;;;;;4981034;28;20212;-86
2021/03/18 02:48:34;;;;;;;13.05;5.25;;;4.10;99.90;;;;;;4980732;28;20219;-85
2021/03/18 02:51:02;;;;;;;6.50;3.45;;;4.00;99.90;;;;;;4981404;28;20676;-85
2021/03/18 02:53:33;;;;;;;8.02;3.85;;;4.30;99.90;;;;;;4981083;28;20672;-85
2021/03/18 02:56:04;;;;;;;7.20;4.47;;;4.30;99.90;;;;;;4980467;28;20288;-85
2021/03/18 02:58:34;;;;;;;9.35;3.88;;;4.30;99.90;;;;;;4980447;28;20539;-85
2021/03/18 03:01:02;;;;;;;11.90;4.05;;;4.20;99.90;;;;;;4977386;28;20209;-86
2021/03/18 03:03:29;;;;;;;11.00;4.30;;;4.10;99.90;;;;;;4971102;28;20651;-85
2021/03/18 03:05:56;;;;;;;6.68;4.25;;;4.10;99.90;;;;;;4967149;28;20681;-85
2021/03/18 03:08:26;;;;;;;5.85;4.13;;;4.10;99.90;;;;;;4979460;28;20383;-86
2021/03/18 03:10:55;;;;;;;6.65;3.67;;;4.30;99.90;;;;;;4981574;28;20285;-85
2021/03/18 03:13:22;;;;;;;5.70;3.67;;;4.40;99.90;;;;;;4982201;28;20233;-86
2021/03/18 03:15:50;;;;;;;7.25;4.00;;;4.10;99.90;;;;;;4976556;28;20280;-84
2021/03/18 03:18:18;;;;;;;7.60;4.30;;;4.30;99.90;;;;;;4976577;28;20241;-85
2021/03/18 03:20:45;;;;;;;8.02;3.75;;;4.30;99.90;;;;;;4982898;28;20207;-86
2021/03/18 03:23:13;;;;;;;6.65;3.85;;;4.40;99.90;;;;;;4983475;28;20244;-85
2021/03/18 03:25:41;;;;;;;6.80;3.90;;;4.40;99.90;;;;;;4971760;28;20217;-85
2021/03/18 03:28:10;;;;;;;8.25;3.78;;;4.30;99.90;;;;;;4979853;28;20247;-85
2021/03/18 03:30:37;;;;;;;6.55;3.50;;;4.30;99.90;;;;;;4978919;28;20213;-85
2021/03/18 03:33:04;;;;;;;8.85;4.18;;;4.40;99.90;;;;;;4985582;28;20323;-85
2021/03/18 03:35:30;;;;;;;6.50;4.05;;;4.40;99.90;;;;;;4981695;28;20209;-85
2021/03/18 03:37:57;;;;;;;7.57;4.20;;;4.50;99.90;;;;;;4979784;28;20213;-85
2021/03/18 03:40:23;;;;;;;9.73;3.95;;;4.50;99.90;;;;;;4979667;28;20205;-86
2021/03/18 03:42:50;;;;;;;7.47;4.00;;;4.50;99.90;;;;;;4979475;28;20274;-86
2021/03/18 03:45:18;;;;;;;7.03;3.85;;;4.50;99.90;;;;;;4980206;28;20268;-86
2021/03/18 03:47:45;;;;;;;7.03;3.55;;;4.40;99.90;;;;;;4979573;28;20209;-86
2021/03/18 03:50:14;;;;;;;6.55;3.70;;;4.40;99.90;;;;;;4979791;28;20269;-85
2021/03/18 03:52:48;;;;;;;7.28;3.05;;;4.50;99.90;;;;;;4980315;28;20767;-85
2021/03/18 03:55:21;;;;;;;5.35;3.30;;;4.70;99.90;;;;;;4967928;28;20796;-85
2021/03/18 03:57:55;;;;;;;7.57;3.67;;;4.50;99.90;;;;;;4964052;28;20288;-85
2021/03/18 04:00:22;;;;;;;12.68;4.55;;;4.40;99.90;;;;;;4962801;28;20206;-85
2021/03/18 04:02:51;;;;;;;6.65;3.97;;;4.40;99.90;;;;;;4975089;28;20292;-85
2021/03/18 04:05:19;;;;;;;5.47;3.58;;;4.20;99.90;;;;;;4979694;28;20211;-86
2021/03/18 04:07:47;;;;;;;7.72;3.67;;;4.20;99.90;;;;;;4977207;28;20216;-84
2021/03/18 04:10:14;;;;;;;8.07;3.10;;;4.20;99.90;;;;;;4978047;28;20201;-84
2021/03/18 04:12:45;;;;;;;7.18;3.17;;;4.30;99.90;;;;;;4987295;28;20237;-85
2021/03/18 04:15:15;;;;;;;7.00;2.90;;;4.70;99.90;;;;;;4989333;28;20281;-86
2021/03/18 04:17:46;;;;;;;6.22;3.40;;;4.70;99.90;;;;;;4988541;28;20209;-84
2021/03/18 04:20:15;;;;;;;6.00;3.70;;;4.50;99.90;;;;;;4989787;28;20209;-86
2021/03/18 04:22:44;;;;;;;5.30;3.15;;;4.30;99.90;;;;;;4989528;28;20280;-84
2021/03/18 04:25:12;;;;;;;6.72;3.25;;;4.30;99.90;;;;;;4989809;28;20217;-84
2021/03/18 04:27:39;;;;;;;6.88;2.60;;;4.20;99.90;;;;;;4996844;28;20203;-84
2021/03/18 04:30:09;;;;;;;7.57;3.13;;;4.10;99.90;;;;;;4989040;28;20228;-85
2021/03/18 04:32:38;;;;;;;4.78;2.72;;;4.20;99.90;;;;;;4988334;28;20424;-84
2021/03/18 04:35:05;;;;;;;7.70;3.35;;;4.40;99.90;;;;;;4990297;28;20231;-84
2021/03/18 04:37:33;;;;;;;5.32;3.10;;;4.60;99.90;;;;;;4990229;28;20216;-85
2021/03/18 04:40:01;;;;;;;5.07;2.85;;;4.30;99.90;;;;;;4982928;28;20204;-84
2021/03/18 04:42:28;;;;;;;8.32;3.13;;;4.30;99.90;;;;;;4996775;28;20267;-84
2021/03/18 04:44:55;;;;;;;8.40;3.78;;;4.30;99.90;;;;;;4993039;28;20236;-84
2021/03/18 04:47:22;;;;;;;6.50;3.28;;;4.30;99.90;;;;;;4995773;28;20251;-84
2021/03/18 04:49:50;;;;;;;5.18;3.78;;;4.20;99.90;;;;;;4996141;28;20221;-83
2021/03/18 04:52:18;;;;;;;7.82;3.83;;;4.20;99.90;;;;;;4994999;28;20268;-84
2021/03/18 04:54:45;;;;;;;5.90;3.30;;;4.00;99.90;;;;;;4993963;28;20301;-84
2021/03/18 04:57:14;;;;;;;6.03;2.75;;;4.40;99.90;;;;;;4997308;28;20201;-84
2021/03/18 04:59:41;;;;;;;6.60;3.60;;;4.30;99.90;;;;;;4990875;28;20269;-85
2021/03/18 05:02:10;;;;;;;5.78;2.97;;;4.30;99.90;;;;;;5009525;28;20263;-84
2021/03/18 05:04:37;;;;;;;5.55;3.10;;;4.40;99.90;;;;;;5005173;28;20233;-85
2021/03/18 05:07:05;;;;;;;9.43;3.42;;;4.50;99.90;;;;;;4996409;28;20216;-84
2021/03/18 05:09:34;;;;;;;5.20;3.05;;;4.40;99.90;;;;;;4995559;28;20208;-83
2021/03/18 05:12:01;;;;;;;7.25;3.33;;;4.50;99.90;;;;;;4984075;28;20244;-84
2021/03/18 05:14:29;;;;;;;8.82;4.28;;;4.40;99.90;;;;;;4995713;28;20332;-84
2021/03/18 05:16:55;;;;;;;6.47;3.83;;;4.20;99.90;;;;;;4993526;28;20209;-85
2021/03/18 05:19:22;;;;;;;6.55;3.38;;;4.40;99.90;;;;;;4978698;28;20210;-85
2021/03/18 05:21:50;;;;;;;7.07;3.70;;;4.10;99.90;;;;;;4965935;28;20391;-85
2021/03/18 05:24:18;;;;;;;8.15;2.88;;;4.40;99.90;;;;;;4968506;28;20233;-85
2021/03/18 05:26:44;;;;;;;6.88;3.65;;;4.50;99.90;;;;;;4985468;28;20243;-84
2021/03/18 05:29:12;;;;;;;8.30;3.67;;;4.60;99.90;;;;;;4985518;28;20437;-86
2021/03/18 05:31:38;;;;;;;19.52;10.00;;;4.20;99.90;;;;;;4974823;28;20217;-87
2021/03/18 05:34:05;;;;;;;8.52;3.90;;;4.10;99.90;;;;;;4971432;28;20260;-85
2021/03/18 05:36:32;;;;;;;7.70;3.78;;;4.00;99.90;;;;;;4976462;28;20275;-85
2021/03/18 05:38:59;;;;;;;9.82;3.85;;;4.20;99.90;;;;;;4988051;28;20234;-87
2021/03/18 05:41:27;;;;;;;6.45;3.65;;;4.30;99.90;;;;;;4972923;28;20234;-83
2021/03/18 05:43:53;;;;;;;5.90;3.42;;;4.40;99.90;;;;;;4972808;28;20277;-85
2021/03/18 05:46:20;;;;;;;7.00;3.67;;;4.60;99.90;;;;;;4972434;28;20229;-84
2021/03/18 05:48:47;;;;;;;5.75;3.50;;;4.50;99.90;;;;;;4971478;28;20292;-86
2021/03/18 05:51:15;;;;;;;9.45;3.55;;;4.50;99.90;;;;;;4979624;28;20292;-84
2021/03/18 05:53:44;;;;;;;10.50;4.00;;;4.60;99.90;;;;;;4978829;28;20722;-85
2021/03/18 05:56:14;;;;;;;8.70;3.83;;;4.50;99.90;;;;;;4987339;28;20315;-84
2021/03/18 05:58:42;;;;;;;10.55;4.20;;;4.60;99.90;;;;;;4993758;28;20265;-86
2021/03/18 06:01:09;;;;;;;7.20;3.30;;;4.40;99.90;;;;;;4994167;28;20201;-85
2021/03/18 06:03:36;;;;;;;7.85;4.30;;;4.50;99.90;;;;;;4993796;28;20220;-84
2021/03/18 06:06:06;;;;;;;6.28;3.42;;;4.40;99.90;;;;;;4986427;28;20217;-84
2021/03/18 06:08:34;;;;;;;12.75;4.15;;;4.50;99.90;;;;;;4977079;28;20263;-85
2021/03/18 06:11:01;;;;;;;7.55;3.47;;;4.50;99.90;;;;;;4996509;28;20204;-85
2021/03/18 06:13:27;;;;;;;8.98;4.00;;;4.30;99.90;;;;;;5011917;28;20243;-85
2021/03/18 06:15:55;;;;;;;5.63;3.90;;;4.40;99.90;;;;;;4998051;28;20269;-84
2021/03/18 06:18:22;;;;;;;7.65;4.60;;;4.60;99.90;;;;;;4980103;28;20723;-86
2021/03/18 06:20:51;;;;;;;8.27;4.18;;;4.50;99.90;;;;;;4990728;28;20219;-85
2021/03/18 06:23:17;;;;;;;9.90;4.93;;;4.30;99.90;;;;;;4993355;28;20263;-85
2021/03/18 06:25:44;;;;;;;6.68;4.32;;;4.50;99.90;;;;;;4991411;28;20205;-87
2021/03/18 06:28:19;;;;;;;6.68;4.15;;;4.40;99.90;;;;;;4988807;28;20981;-84
2021/03/18 06:31:03;;;;;;;6.93;3.88;;;4.40;99.90;;;;;;4971925;28;20197;-85
2021/03/18 06:33:31;;;;;;;8.45;4.20;;;4.30;99.90;;;;;;4971552;28;20233;-85
2021/03/18 06:35:58;;;;;;;12.73;4.40;;;4.40;99.90;;;;;;4976027;28;20265;-84
2021/03/18 06:38:30;;;;;;;10.18;5.45;;;4.40;99.90;;;;;;4987996;28;20233;-86
2021/03/18 06:40:57;;;;;;;8.88;3.85;;;4.20;99.90;;;;;;4990004;28;20264;-84
2021/03/18 06:43:38;;;;;;;8.20;4.28;;;4.30;99.90;;;;;;4990822;28;20702;-84
2021/03/18 06:46:23;;;;;;;10.23;4.07;;;4.50;99.90;;;;;;4977646;28;20721;-84
2021/03/18 06:48:51;;;;;;;6.05;4.05;;;4.50;99.90;;;;;;4975737;28;20213;-84
2021/03/18 06:51:24;;;;;;;7.68;4.63;;;4.70;99.90;;;;;;4991669;28;20205;-82
2021/03/18 06:53:51;;;;;;;8.15;4.30;;;4.60;99.90;;;;;;4986429;28;20233;-85
2021/03/18 06:56:31;;;;;;;7.75;4.07;;;4.80;99.90;;;;;;4981628;28;20244;-85
2021/03/18 06:58:57;;;;;;;11.00;4.25;;;4.50;99.90;;;;;;4988730;28;20193;-85
2021/03/18 07:01:27;;;;;;;7.47;3.92;;;4.50;99.90;;;;;;4986504;28;20213;-85
2021/03/18 07:04:03;;;;;;;13.05;5.38;;;4.70;99.90;;;;;;4987841;28;20265;-85
2021/03/18 07:06:31;;;;;;;7.03;3.67;;;4.50;99.90;;;;;;4995010;28;20220;-86
2021/03/18 07:09:11;;;;;;;9.45;4.45;;;4.60;99.90;;;;;;4987370;28;20256;-85
2021/03/18 07:11:39;;;;;;;7.22;4.45;;;4.60;99.90;;;;;;4989839;28;20249;-85
2021/03/18 07:14:07;;;;;;;9.63;4.60;;;4.60;99.90;;;;;;4988765;28;20288;-85
2021/03/18 07:16:43;;;;;;;7.43;4.97;;;4.60;99.90;;;;;;4989861;28;20240;-85
2021/03/18 07:19:19;;;;;;;10.10;4.45;;;4.60;99.90;;;;;;4988808;28;20257;-84
2021/03/18 07:21:45;;;;;;;8.15;4.57;;;4.70;99.90;;;;;;4988815;28;20264;-85
2021/03/18 07:24:22;;;;;;;7.93;4.40;;;4.80;99.90;;;;;;4989986;28;20217;-83
2021/03/18 07:26:49;;;;;;;9.90;4.50;;;4.90;99.90;;;;;;4990067;28;20664;-83
2021/03/18 07:29:16;;;;;;;9.32;4.38;;;4.90;99.90;;;;;;4975009;28;20205;-85
2021/03/18 07:31:44;;;;;;;10.50;4.30;;;4.90;99.90;;;;;;4990457;28;20264;-85
2021/03/18 07:34:11;;;;;;;8.55;5.10;;;4.80;99.90;;;;;;4990909;28;20213;-85
2021/03/18 07:36:39;;;;;;;8.13;4.50;;;4.80;99.90;;;;;;4988035;28;20205;-85
2021/03/18 07:39:07;;;;;;;12.52;4.93;;;5.00;99.90;;;;;;4989350;28;20208;-84
2021/03/18 07:41:35;;;;;;;11.52;5.75;;;4.80;99.90;;;;;;4997409;28;20236;-85
2021/03/18 07:44:02;;;;;;;9.25;4.57;;;5.00;99.90;;;;;;4986933;28;20205;-84
2021/03/18 07:46:31;;;;;;;9.35;5.28;;;4.90;99.90;;;;;;4992073;28;20217;-85
2021/03/18 07:49:07;;;;;;;13.38;5.57;;;5.00;99.90;;;;;;4989103;28;20271;-85
2021/03/18 07:51:38;;;;;;;9.95;5.38;;;5.20;99.90;;;;;;4969051;28;20228;-84
2021/03/18 07:54:06;;;;;;;7.75;4.72;;;5.10;99.90;;;;;;4985474;28;20252;-85
2021/03/18 07:56:32;;;;;;;9.10;5.75;;;5.30;99.90;;;;;;4994566;28;20217;-84
2021/03/18 07:59:06;;;;;;;10.93;6.38;;;5.30;99.90;;;;;;4990280;28;20211;-84
2021/03/18 08:01:38;;;;;;;10.52;5.90;;;5.40;99.90;;;;;;4990009;28;20224;-83
2021/03/18 08:04:07;;;;;;;6.63;4.93;;;5.50;99.90;;;;;;4978476;28;20212;-82
2021/03/18 08:06:54;;;;;;;14.23;5.40;;;5.30;99.90;;;;;;4990717;28;20236;-84
2021/03/18 08:09:50;;;;;;;11.98;5.72;;;5.40;99.90;;;;;;4979702;28;20838;-84
2021/03/18 08:12:44;;;;;;;10.77;6.05;;;5.60;99.90;;;;;;4964190;28;20244;-84
2021/03/18 08:15:25;;;;;;;15.60;6.30;;;5.40;99.90;;;;;;4983344;28;20190;-84
2021/03/18 08:17:52;;;;;;;9.20;5.47;;;5.50;99.90;;;;;;4969545;28;20218;-83
2021/03/18 08:20:59;;;;;;;14.90;5.80;;;5.50;99.90;;;;;;4983468;28;20205;-84
2021/03/18 08:23:39;;;;;;;11.43;5.43;;;5.50;99.90;;;;;;4970945;28;20669;-84
2021/03/18 08:26:09;;;;;;;14.23;6.20;;;5.60;99.90;;;;;;4969116;28;20213;-83
2021/03/18 08:28:45;;;;;;;14.18;6.03;;;5.80;99.90;;;;;;4977403;28;20220;-85
2021/03/18 08:31:14;;;;;;;10.52;6.35;;;5.80;99.90;;;;;;4982082;28;20287;-84
2021/03/18 08:33:45;;;;;;;12.05;6.85;;;5.80;99.90;;;;;;4988286;28;20240;-84
2021/03/18 08:36:30;;;;;;;11.20;5.32;;;5.90;99.90;;;;;;4984630;28;20676;-85
2021/03/18 08:38:59;;;;;;;11.30;5.53;;;6.10;99.90;;;;;;4988702;28;20276;-86
2021/03/18 08:41:31;;;;;;;11.30;5.90;;;6.10;99.90;;;;;;4992402;28;20233;-86
2021/03/18 08:44:12;;;;;;;17.60;6.50;;;6.10;99.90;;;;;;4994256;28;20384;-85
2021/03/18 08:46:40;;;;;;;11.95;6.10;;;6.10;99.90;;;;;;4984841;28;20276;-86
2021/03/18 08:49:23;;;;;;;7.95;5.03;;;6.50;99.90;;;;;;4966334;28;20214;-81
2021/03/18 08:51:51;;;;;;;9.95;5.47;;;6.20;99.90;;;;;;4979037;28;20287;-80
2021/03/18 08:54:52;;;;;;;13.65;6.80;;;6.40;99.90;;;;;;4990745;28;20221;-82
2021/03/18 08:57:33;;;;;;;12.10;7.50;;;6.50;99.90;;;;;;4993315;28;20212;-81
2021/03/18 09:00:11;;;;;;;11.70;6.57;;;6.70;99.90;;;;;;4984848;28;20216;-81
2021/03/18 09:02:38;;;;;;;19.48;6.93;;;6.90;99.90;;;;;;4971661;28;20238;-86
2021/03/18 09:05:14;;;;;;;11.95;5.53;;;6.80;99.90;;;;;;4969207;28;20199;-85
2021/03/18 09:07:42;;;;;;;6.95;4.57;;;6.50;99.90;;;;;;4963332;28;20213;-85
2021/03/18 09:10:16;;;;;;;9.00;5.95;;;6.70;99.90;;;;;;4961870;28;20275;-86
2021/03/18 09:12:45;;;;;;;12.23;6.72;;;6.60;99.90;;;;;;4964113;28;20697;-84
2021/03/18 09:15:30;;;;;;;9.35;5.88;;;6.30;99.90;;;;;;4966514;28;20232;-83
2021/03/18 09:17:59;;;;;;;9.80;5.90;;;6.20;99.90;;;;;;4963525;28;20302;-85
2021/03/18 09:20:29;;;;;;;9.02;5.85;;;6.40;99.90;;;;;;4971127;28;20296;-87
2021/03/18 09:23:09;;;;;;;11.25;5.32;;;6.40;99.90;;;;;;4980158;28;20295;-84
2021/03/18 09:25:35;;;;;;;9.65;5.43;;;6.20;99.90;;;;;;4985205;28;20200;-84
2021/03/18 09:28:02;;;;;;;11.48;6.38;;;6.40;99.90;;;;;;4990906;28;20212;-84
2021/03/18 09:30:31;;;;;;;11.38;6.70;;;6.30;99.90;;;;;;4988057;28;20249;-84
2021/03/18 09:32:59;;;;;;;10.55;7.15;;;6.50;99.90;;;;;;4986140;28;20316;-85
2021/03/18 09:35:27;;;;;;;11.23;6.18;;;6.40;99.90;;;;;;4990181;28;20212;-86
2021/03/18 09:37:55;;;;;;;9.95;5.80;;;6.30;99.90;;;;;;4987378;28;20306;-85
2021/03/18 09:40:33;;;;;;;8.70;5.80;;;6.30;99.90;;;;;;4987306;28;20210;-86
2021/03/18 09:43:00;;;;;;;10.40;6.30;;;6.30;99.90;;;;;;4981639;28;20251;-85
2021/03/18 09:45:28;;;;;;;8.98;5.57;;;6.10;99.90;;;;;;4983750;28;20240;-85
2021/03/18 09:48:09;;;;;;;12.10;6.65;;;6.10;99.90;;;;;;5152274;27;20372;-85
2021/03/18 09:50:35;;;;;;;12.90;6.15;;;6.10;99.90;;;;;;5141540;28;20873;-86
2021/03/18 09:53:07;;;;;;;10.65;4.50;;;6.30;99.90;;;;;;5123715;28;20220;-86
2021/03/18 09:55:33;;;;;;;8.32;4.85;;;6.30;99.90;;;;;;5120090;28;20235;-85
2021/03/18 09:58:08;;;;;;;14.98;6.68;;;6.30;99.90;;;;;;5119775;28;20679;-79
2021/03/18 10:00:37;;;;;;;8.52;4.85;;;6.30;99.90;;;;;;5118195;28;20237;-86
2021/03/18 10:03:03;;;;;;;7.88;4.30;;;6.00;99.90;;;;;;5122598;28;20228;-83
2021/03/18 10:05:31;;;;;;;8.55;4.82;;;6.30;99.90;;;;;;5123845;28;20257;-87
2021/03/18 10:07:58;;;;;;;8.13;3.60;;;6.20;99.90;;;;;;5123389;28;20340;-85
2021/03/18 10:10:24;;;;;;;9.50;4.15;;;6.30;99.90;;;;;;5122546;28;20235;-83
2021/03/18 10:12:53;;;;;;;8.05;4.60;;;6.30;99.70;;;;;;5121547;28;20238;-87
2021/03/18 10:15:20;;;;;;;6.13;3.83;;;6.20;99.70;;;;;;5120369;28;20213;-85
2021/03/18 10:17:48;;;;;;;6.88;3.40;;;6.30;97.80;;;;;;5122681;28;20224;-84
2021/03/18 10:20:18;;;;;;;7.70;3.58;;;6.30;97.90;;;;;;5120765;28;20268;-85
2021/03/18 10:22:49;;;;;;;9.18;4.93;;;6.30;98.70;;;;;;5121902;28;20247;-85
2021/03/18 10:25:17;;;;;;;7.82;4.30;;;6.20;99.00;;;;;;5100199;28;20276;-86
2021/03/18 10:27:46;;;;;;;8.00;4.10;;;6.50;98.40;;;;;;5102928;28;20240;-82
2021/03/18 10:30:15;;;;;;;7.60;4.95;;;6.80;98.50;;;;;;5114437;28;20201;-77
2021/03/18 10:32:43;;;;;;;12.73;5.35;;;6.90;98.50;;;;;;5112173;28;20255;-85
2021/03/18 10:35:11;;;;;;;7.53;4.35;;;7.00;98.20;;;;;;5120986;28;20602;-85
2021/03/18 10:37:39;;;;;;;9.88;3.45;;;7.20;97.80;;;;;;5124666;28;20199;-85
2021/03/18 10:40:26;;;;;;;7.50;4.75;;;7.20;98.40;;;;;;5119201;28;20728;-86
2021/03/18 10:42:54;;;;;;;8.55;5.47;;;6.70;98.70;;;;;;5119348;28;20585;-85
2021/03/18 10:45:25;;;;;;;10.43;4.35;;;7.10;98.70;;;;;;5119196;28;20664;-85
2021/03/18 10:47:54;;;;;;;10.40;4.40;;;7.00;97.10;;;;;;5119470;28;20254;-83
2021/03/18 10:50:23;;;;;;;7.07;3.47;;;6.90;96.90;;;;;;5122445;28;20205;-85
2021/03/18 10:53:01;;;;;;;9.23;4.80;;;6.90;97.40;;;;;;5123245;28;20248;-86
2021/03/18 10:55:32;;;;;;;7.80;3.45;;;7.00;97.40;;;;;;5129007;28;20188;-83
2021/03/18 10:58:00;;;;;;;6.93;3.70;;;7.20;96.40;;;;;;5098480;28;20225;-77
2021/03/18 11:00:30;;;;;;;5.53;3.30;;;7.00;95.20;;;;;;5090201;28;20602;-77
2021/03/18 11:02:58;;;;;;;6.68;3.40;;;7.20;95.80;;;;;;5097735;28;20260;-78
2021/03/18 11:05:29;;;;;;;9.20;3.75;;;6.90;95.50;;;;;;5101831;28;20245;-77
2021/03/18 11:07:56;;;;;;;5.68;3.22;;;6.90;96.00;;;;;;5115495;28;20719;-78
2021/03/18 11:10:30;;;;;;;5.55;3.50;;;7.10;95.30;;;;;;5097064;28;20241;-77
2021/03/18 11:12:59;;;;;;;6.55;4.22;;;7.00;95.50;;;;;;5099008;28;20220;-77
2021/03/18 11:15:26;;;;;;;6.85;4.13;;;7.00;96.10;;;;;;5096022;28;20647;-76
2021/03/18 11:18:06;;;;;;;9.98;4.13;;;7.00;96.70;;;;;;5082849;28;20194;-79
2021/03/18 11:20:37;;;;;;;9.10;4.72;;;7.10;96.90;;;;;;5089359;28;20197;-79
2021/03/18 11:23:04;;;;;;;7.57;4.50;;;7.10;97.20;;;;;;5101275;28;20527;-87
2021/03/18 11:25:32;;;;;;;9.25;4.47;;;7.70;95.90;;;;;;5111533;28;20201;-84
2021/03/18 11:27:58;;;;;;;7.55;4.20;;;7.90;95.70;;;;;;5123927;28;20771;-84
2021/03/18 11:30:30;;;;;;;7.65;4.72;;;7.80;95.00;;;;;;5088905;28;20205;-85
2021/03/18 11:33:12;;;;;;;6.47;4.20;;;7.70;94.90;;;;;;5102140;28;20257;-84
2021/03/18 11:35:39;;;;;;;6.13;4.07;;;7.90;95.20;;;;;;5080868;28;20209;-84
2021/03/18 11:38:06;;;;;;;7.75;4.05;;;8.00;94.50;;;;;;5079376;28;20208;-85
2021/03/18 11:40:33;;;;;;;7.50;4.35;;;8.10;93.30;;;;;;5081515;28;20293;-85
2021/03/18 11:43:00;;;;;;;7.18;4.60;;;7.80;92.60;;;;;;5079759;28;20214;-85
2021/03/18 11:45:26;;;;;;;7.22;4.10;;;7.80;92.70;;;;;;5092454;28;20233;-83
2021/03/18 11:47:52;;;;;;;14.70;4.43;;;7.90;92.50;;;;;;5100641;28;20228;-85
2021/03/18 11:50:19;;;;;;;6.55;4.38;;;7.90;92.30;;;;;;5097633;28;20264;-77
2021/03/18 11:52:46;;;;;;;5.35;3.80;;;7.90;92.20;;;;;;5098620;28;20635;-83
2021/03/18 11:55:13;;;;;;;7.07;4.43;;;7.80;92.50;;;;;;5099384;28;20189;-86
2021/03/18 11:57:40;;;;;;;11.95;4.00;;;7.60;92.40;;;;;;5099831;28;20212;-85
2021/03/18 12:00:08;;;;;;;5.97;4.40;;;7.70;92.30;;;;;;5100024;28;20276;-85
2021/03/18 12:02:34;;;;;;;7.95;4.50;;;7.40;92.30;;;;;;5100142;28;20715;-85
2021/03/18 12:05:01;;;;;;;8.45;5.20;;;7.40;92.90;;;;;;5106624;28;20298;-85
2021/03/18 12:07:28;;;;;;;7.53;3.53;;;7.40;93.90;;;;;;5104368;28;20225;-85
2021/03/18 12:09:55;;;;;;;6.20;2.47;;;7.70;96.10;;;;;;5102431;28;20205;-84
2021/03/18 12:12:21;;;;;;;5.90;3.03;;;7.20;97.50;;;;;;5105611;28;20232;-84
2021/03/18 12:14:48;;;;;;;6.85;4.07;;;6.70;98.20;;;;;;5107454;28;20213;-85
2021/03/18 12:17:15;;;;;;;7.32;4.28;;;6.90;99.00;;;;;;5105800;28;20205;-85
2021/03/18 12:19:43;;;;;;;9.75;5.03;;;6.80;98.10;;;;;;5107428;28;20235;-85
2021/03/18 12:22:09;;;;;;;6.63;3.95;;;6.90;97.10;;;;;;5106012;28;20852;-85
2021/03/18 12:24:35;;;;;;;9.55;3.90;;;7.00;97.10;;;;;;5104754;28;20209;-83
2021/03/18 12:27:02;;;;;;;8.07;4.70;;;7.00;96.70;;;;;;5106115;28;20249;-82
2021/03/18 12:29:28;;;;;;;9.43;5.35;;;7.30;97.00;;;;;;5105501;28;20231;-83
2021/03/18 12:31:56;;;;;;;6.20;4.10;;;7.50;97.20;;;;;;5104447;28;20239;-83
2021/03/18 12:34:22;;;;;;;7.10;4.15;;;7.60;95.50;;;;;;5106240;28;20208;-84
2021/03/18 12:36:49;;;;;;;8.40;3.70;;;7.80;94.30;;;;;;5105772;28;20198;-81
2021/03/18 12:39:15;;;;;;;8.65;4.70;;;7.70;96.30;;;;;;5108001;28;20208;-83
2021/03/18 12:41:42;;;;;;;10.90;5.25;;;7.70;98.80;;;;;;5106920;28;20255;-83
2021/03/18 12:44:08;;;;;;;6.63;3.80;;;7.70;99.90;;;;;;5109724;28;20228;-82
2021/03/18 12:46:35;;;;;;;6.50;4.10;;;7.60;99.90;;;;;;5109281;28;20332;-82
2021/03/18 12:49:02;;;;;;;10.65;4.80;;;7.80;99.90;;;;;;5107349;28;20201;-81
2021/03/18 12:51:29;;;;;;;6.30;4.30;;;7.70;99.40;;;;;;5108563;28;20251;-82
2021/03/18 12:53:55;;;;;;;7.25;4.70;;;7.50;99.60;;;;;;5103313;28;20197;-81
2021/03/18 12:56:22;;;;;;;6.40;4.88;;;7.40;99.90;;;;;;5102652;28;20268;-82
2021/03/18 12:58:48;;;;;;;8.13;3.50;;;7.40;99.90;;;;;;5101818;28;20278;-81
2021/03/18 13:01:14;;;;;;;6.30;3.53;;;7.40;99.40;;;;;;5101303;28;20205;-83
2021/03/18 13:03:41;;;;;;;7.07;4.40;;;7.10;99.90;;;;;;5092728;28;20213;-83
2021/03/18 13:06:09;;;;;;;6.40;4.03;;;7.00;99.80;;;;;;5111984;22;20907;-86
2021/03/18 13:08:36;;;;;;;8.80;4.25;;;7.00;99.90;;;;;;5089756;28;20559;-84